createdAt,value
2023-12-11T00:01:00.030Z,10.90
2023-12-11T00:05:56.515Z,11.77
2023-12-11T00:10:52.926Z,13.15
2023-12-11T00:15:49.304Z,14.90
2023-12-11T00:20:45.810Z,16.15
2023-12-11T00:25:47.039Z,14.43
2023-12-11T00:30:43.396Z,19.30
2023-12-11T00:35:40.173Z,21.48
2023-12-11T00:40:36.569Z,11.75
2023-12-11T00:45:33.022Z,19.75
2023-12-11T00:50:29.448Z,18.33
2023-12-11T00:55:25.839Z,20.33
2023-12-11T01:00:22.582Z,11.48
2023-12-11T01:05:19.741Z,21.58
2023-12-11T01:10:16.345Z,15.07
2023-12-11T01:15:12.851Z,15.68
2023-12-11T01:20:10.199Z,16.55
2023-12-11T01:25:08.064Z,13.85
2023-12-11T01:30:05.018Z,16.55
2023-12-11T01:35:01.919Z,13.32
2023-12-11T01:39:58.323Z,19.70
2023-12-11T01:44:54.830Z,16.33
2023-12-11T01:49:51.355Z,17.67
2023-12-11T01:54:48.139Z,17.58
2023-12-11T01:59:47.526Z,21.38
2023-12-11T02:04:45.522Z,19.15
2023-12-11T02:09:41.993Z,17.75
2023-12-11T02:14:38.505Z,19.88
2023-12-11T02:19:34.949Z,16.45
2023-12-11T02:24:42.779Z,15.23
2023-12-11T02:29:39.160Z,18.05
2023-12-11T02:34:35.537Z,29.02
2023-12-11T02:39:31.982Z,22.00
2023-12-11T02:44:28.470Z,15.52
2023-12-11T02:49:24.962Z,33.58
2023-12-11T02:54:21.456Z,21.38
2023-12-11T02:59:17.792Z,25.55
2023-12-11T03:04:14.275Z,24.08
2023-12-11T03:09:10.715Z,29.65
2023-12-11T03:14:07.092Z,31.88
2023-12-11T03:19:03.570Z,22.27
2023-12-11T03:23:59.972Z,22.73
2023-12-11T03:28:56.325Z,24.05
2023-12-11T03:33:52.733Z,20.45
2023-12-11T03:38:49.140Z,25.08
2023-12-11T03:43:45.465Z,26.98
2023-12-11T03:48:41.881Z,28.13
2023-12-11T03:53:38.404Z,25.30
2023-12-11T03:58:34.783Z,31.50
2023-12-11T04:03:32.839Z,26.15
2023-12-11T04:08:29.214Z,15.60
2023-12-11T04:13:25.559Z,20.17
2023-12-11T04:18:22.013Z,21.92
2023-12-11T04:23:18.444Z,20.90
2023-12-11T04:28:14.918Z,17.60
2023-12-11T04:33:11.462Z,27.52
2023-12-11T04:38:07.839Z,23.90
2023-12-11T04:43:04.306Z,29.23
2023-12-11T04:48:00.730Z,20.40
2023-12-11T04:52:57.085Z,20.48
2023-12-11T04:57:53.423Z,32.63
2023-12-11T05:02:49.817Z,29.15
2023-12-11T05:07:46.174Z,20.65
2023-12-11T05:12:42.666Z,26.20
2023-12-11T05:17:39.180Z,22.85
2023-12-11T05:22:35.582Z,28.05
2023-12-11T05:27:32.072Z,20.42
2023-12-11T05:32:28.546Z,17.30
2023-12-11T05:37:25.234Z,17.15
2023-12-11T05:42:21.600Z,15.02
2023-12-11T05:47:17.917Z,8.75
2023-12-11T05:52:14.369Z,18.02
2023-12-11T05:57:10.722Z,17.25
2023-12-11T06:02:07.157Z,15.57
2023-12-11T06:07:03.761Z,14.73
2023-12-11T06:12:00.075Z,17.67
2023-12-11T06:16:56.429Z,19.42
2023-12-11T06:21:52.817Z,15.23
2023-12-11T06:26:49.140Z,20.40
2023-12-11T06:31:45.453Z,14.60
2023-12-11T06:36:41.906Z,12.05
2023-12-11T06:41:38.311Z,14.88
2023-12-11T06:46:34.649Z,9.68
2023-12-11T06:51:31.041Z,21.00
2023-12-11T06:56:31.976Z,11.18
2023-12-11T07:01:32.619Z,19.70
2023-12-11T07:06:29.119Z,15.23
2023-12-11T07:11:26.188Z,11.98
2023-12-11T07:16:24.556Z,20.90
2023-12-11T07:21:21.105Z,12.82
2023-12-11T07:26:17.536Z,15.70
2023-12-11T07:31:13.967Z,12.38
2023-12-11T07:36:11.757Z,22.08
2023-12-11T07:41:08.505Z,9.73
2023-12-11T07:46:05.039Z,15.15
2023-12-11T07:51:01.489Z,12.48
2023-12-11T07:55:57.809Z,11.20
2023-12-11T08:00:54.322Z,21.00
2023-12-11T08:05:51.174Z,20.40
2023-12-11T08:10:48.060Z,18.23
2023-12-11T08:15:45.038Z,24.50
2023-12-11T08:20:41.470Z,13.50
2023-12-11T08:25:38.549Z,12.38
2023-12-11T08:30:35.250Z,13.27
2023-12-11T08:35:31.629Z,13.23
2023-12-11T08:40:28.019Z,8.45
2023-12-11T08:45:24.556Z,8.10
2023-12-11T08:50:21.156Z,14.88
2023-12-11T08:55:17.705Z,17.45
2023-12-11T09:00:14.808Z,12.93
2023-12-11T09:05:11.250Z,15.30
2023-12-11T09:10:09.555Z,22.95
2023-12-11T09:15:06.888Z,13.40
2023-12-11T09:20:06.111Z,16.80
2023-12-11T09:25:02.691Z,19.52
2023-12-11T09:29:59.713Z,14.43
2023-12-11T09:34:56.230Z,13.40
2023-12-11T09:39:52.685Z,13.95
2023-12-11T09:44:49.449Z,17.08
2023-12-11T09:49:47.164Z,20.55
2023-12-11T09:54:43.800Z,19.23
2023-12-11T09:59:41.699Z,13.77
2023-12-11T10:04:38.060Z,13.02
2023-12-11T10:09:34.833Z,12.95
2023-12-11T10:14:32.052Z,17.35
2023-12-11T10:19:33.167Z,13.35
2023-12-11T10:24:30.490Z,8.25
2023-12-11T10:29:33.344Z,9.95
2023-12-11T10:34:47.316Z,6.72
2023-12-11T10:39:54.455Z,8.50
2023-12-11T10:44:54.234Z,4.63
2023-12-11T10:49:51.841Z,7.82
2023-12-11T10:54:48.539Z,5.78
2023-12-11T10:59:45.867Z,6.88
2023-12-11T11:04:44.489Z,7.28
2023-12-11T11:14:49.092Z,4.00
2023-12-11T11:20:13.612Z,4.90
2023-12-11T11:25:28.982Z,3.75
2023-12-11T11:30:52.535Z,8.98
2023-12-11T11:35:51.147Z,3.35
2023-12-11T11:40:49.829Z,5.40
2023-12-11T11:45:46.426Z,4.68
2023-12-11T11:50:55.268Z,2.88
2023-12-11T11:55:51.888Z,4.75
2023-12-11T12:00:50.543Z,5.63
2023-12-11T12:05:56.817Z,6.70
2023-12-11T12:10:57.492Z,5.80
2023-12-11T12:15:54.374Z,7.40
2023-12-11T12:21:03.929Z,3.22
2023-12-11T12:26:03.725Z,5.13
2023-12-11T12:31:00.292Z,7.38
2023-12-11T12:35:57.085Z,4.18
2023-12-11T12:40:54.770Z,7.00
2023-12-11T12:45:51.143Z,7.30
2023-12-11T12:50:47.503Z,6.85
2023-12-11T12:55:43.933Z,7.22
2023-12-11T13:00:42.134Z,5.85
2023-12-11T13:05:45.020Z,4.95
2023-12-11T13:10:57.989Z,6.95
2023-12-11T13:15:54.533Z,6.80
2023-12-11T13:20:51.446Z,8.18
2023-12-11T13:25:47.891Z,5.60
2023-12-11T13:30:45.240Z,7.80
2023-12-11T13:35:41.703Z,9.95
2023-12-11T13:40:38.039Z,9.40
2023-12-11T13:45:34.383Z,5.93
2023-12-11T13:50:31.575Z,4.88
2023-12-11T13:55:27.942Z,8.55
2023-12-11T14:00:24.455Z,7.43
2023-12-11T14:05:21.054Z,11.07
2023-12-11T14:10:17.935Z,5.55
2023-12-11T14:15:14.308Z,6.97
2023-12-11T14:20:12.167Z,12.05
2023-12-11T14:25:09.810Z,8.37
2023-12-11T14:30:07.057Z,2.73
2023-12-11T14:35:04.020Z,4.28
2023-12-11T14:40:00.582Z,13.02
2023-12-11T14:44:57.077Z,6.53
2023-12-11T14:49:53.670Z,6.70
2023-12-11T14:54:50.133Z,10.02
2023-12-11T14:59:46.725Z,6.05
2023-12-11T15:04:43.105Z,4.97
2023-12-11T15:09:40.637Z,3.88
2023-12-11T15:14:37.278Z,6.60
2023-12-11T15:19:33.719Z,4.90
2023-12-11T15:24:31.287Z,7.75
2023-12-11T15:29:27.655Z,4.80
2023-12-11T15:34:24.110Z,12.43
2023-12-11T15:39:23.552Z,8.38
2023-12-11T15:44:20.005Z,6.38
2023-12-11T15:49:16.857Z,3.58
2023-12-11T15:54:13.374Z,3.17
2023-12-11T15:59:09.823Z,2.60
2023-12-11T16:04:07.067Z,2.78
2023-12-11T16:09:04.392Z,3.03
2023-12-11T16:14:01.592Z,5.45
2023-12-11T16:18:58.181Z,0.82
2023-12-11T16:23:57.665Z,7.70
2023-12-11T16:28:54.202Z,2.55
2023-12-11T16:33:51.707Z,9.90
2023-12-11T16:38:48.675Z,1.40
2023-12-11T16:43:49.012Z,3.53
2023-12-11T16:48:46.030Z,8.10
2023-12-11T16:53:43.264Z,4.90
2023-12-11T16:58:40.001Z,5.40
2023-12-11T17:03:36.419Z,5.05
2023-12-11T17:08:32.768Z,2.60
2023-12-11T17:13:29.271Z,3.35
2023-12-11T17:18:26.056Z,2.03
2023-12-11T17:23:22.596Z,3.83
2023-12-11T17:28:18.959Z,4.05
2023-12-11T17:33:15.309Z,6.25
2023-12-11T17:38:11.887Z,6.28
2023-12-11T17:43:09.291Z,6.72
2023-12-11T17:48:06.315Z,10.40
2023-12-11T17:53:03.047Z,5.97
2023-12-11T17:57:59.494Z,6.30
2023-12-11T18:02:55.860Z,7.45
2023-12-11T18:07:52.631Z,4.95
2023-12-11T18:12:49.155Z,11.13
2023-12-11T18:17:45.607Z,11.63
2023-12-11T18:22:43.554Z,5.65
2023-12-11T18:27:40.391Z,8.17
2023-12-11T18:32:37.154Z,7.70
2023-12-11T18:37:34.002Z,6.57
2023-12-11T18:42:31.698Z,4.57
2023-12-11T18:47:28.344Z,6.85
2023-12-11T18:52:24.874Z,14.68
2023-12-11T18:57:21.326Z,6.53
2023-12-11T19:02:19.003Z,6.57
2023-12-11T19:07:15.822Z,7.28
2023-12-11T19:12:12.796Z,9.50
2023-12-11T19:17:09.115Z,10.20
2023-12-11T19:22:05.553Z,10.32
2023-12-11T19:27:01.909Z,7.55
2023-12-11T19:31:58.439Z,7.68
2023-12-11T19:36:55.033Z,9.27
2023-12-11T19:41:51.947Z,10.90
2023-12-11T19:46:48.404Z,12.13
2023-12-11T19:51:45.070Z,7.32
2023-12-11T19:56:43.470Z,8.80
2023-12-11T20:01:39.901Z,8.75
2023-12-11T20:06:36.343Z,9.25
2023-12-11T20:11:33.075Z,6.78
2023-12-11T20:16:30.248Z,10.80
2023-12-11T20:21:26.772Z,12.60
2023-12-11T20:26:24.393Z,8.23
2023-12-11T20:31:21.013Z,7.77
2023-12-11T20:36:18.843Z,5.70
2023-12-11T20:41:26.691Z,4.10
2023-12-11T20:46:25.168Z,4.07
2023-12-11T20:51:23.433Z,5.03
2023-12-11T20:56:24.017Z,3.87
2023-12-11T21:01:30.552Z,6.55
2023-12-11T21:06:28.420Z,6.97
2023-12-11T21:11:26.231Z,4.28
2023-12-11T21:16:22.687Z,5.33
2023-12-11T21:21:20.974Z,15.07
2023-12-11T21:26:19.701Z,14.07
2023-12-11T21:31:27.767Z,6.90
2023-12-11T21:36:25.965Z,10.35
2023-12-11T21:41:22.383Z,13.10
2023-12-11T21:46:19.997Z,9.50
2023-12-11T21:51:19.870Z,13.48
2023-12-11T21:56:16.386Z,12.30
2023-12-11T22:01:13.062Z,16.20
2023-12-11T22:06:12.774Z,12.35
2023-12-11T22:11:14.094Z,19.27
2023-12-11T22:16:11.084Z,18.38
2023-12-11T22:21:07.538Z,20.25
2023-12-11T22:26:04.048Z,14.60
2023-12-11T22:31:00.632Z,22.90
2023-12-11T22:35:57.088Z,17.90
2023-12-11T22:40:53.470Z,13.40
2023-12-11T22:45:49.965Z,14.63
2023-12-11T22:50:46.519Z,16.35
2023-12-11T22:55:42.944Z,11.40
2023-12-11T23:00:39.382Z,9.55
2023-12-11T23:05:35.858Z,22.05
2023-12-11T23:10:33.697Z,12.27
2023-12-11T23:15:30.169Z,14.23
2023-12-11T23:20:26.741Z,12.68
2023-12-11T23:25:23.865Z,17.42
2023-12-11T23:30:20.281Z,12.63
2023-12-11T23:35:16.707Z,14.30
2023-12-11T23:40:13.397Z,16.77
2023-12-11T23:45:10.024Z,10.00
2023-12-11T23:50:07.190Z,11.10
2023-12-11T23:55:04.379Z,14.02
